Web Počasí Slunečno.cz™ (Podmínky, ePrivacy) používá cookies a personalizace pro reklamní účely. Pohybem po stránce vyjadřujete souhlas. Odejít

Aktuální počasí v Česku a ve světě - METAR

Seznam meteostanic umístěných nejčasteji na letišti v ČR a ve světě

Vyhledat místa podle abecedy:
A B C D E F G H I J K L M N O P Q R S T U V W X Y Z

Filtrovat:

ID stanice:
a/nebo
Název místa (fulltext):
 
Místo (ID)Naposledy načteno 
Vagar (EKVG) 04.12.2021 10:50 UTC Zobrazit METAR
EKVG 041050Z AUTO 34002KT 9999 FEW031/// SCT035/// 01/M01 Q0997 RMK NCD WIND SKEID 35005KT 310V020
Valencia (LEVC) 04.12.2021 11:00 UTC Zobrazit METAR
LEVC 041100Z 31009KT 260V350 CAVOK 17/03 Q1019 NOSIG
Varna (LBWN) 04.12.2021 11:00 UTC Zobrazit METAR
LBWN 041100Z 27009KT 9999 RA SCT011 OVC019 04/03 Q1010 NOSIG
Verona (LIPX) 04.12.2021 10:50 UTC Zobrazit METAR
LIPX 041050Z VRB02KT 9999 BKN060 05/01 Q1010
Vienna (LOWW) 04.12.2021 10:50 UTC Zobrazit METAR
LOWW 041050Z 14012KT 9999 FEW015 BKN043 02/M02 Q1005 NOSIG
Vientiane (VLVT) 04.12.2021 11:00 UTC Zobrazit METAR
VLVT 041100Z 00000KT 5000 BR NSC 19/07 Q1016 NOSIG
Vieuxfort (TLPL) 04.12.2021 11:00 UTC Zobrazit METAR
TLPL 041100Z 05010KT 9999 SCT023 26/22 Q1014 TEMPO SHRA
Vilnius (EYVI) 04.12.2021 10:50 UTC Zobrazit METAR
EYVI 041050Z 19012KT 9999 FEW041 BKN084 M01/M04 Q1004 NOSIG
Vitebsk (UMII) Zatím nenačteno  
Volgograd (URWW) Zatím nenačteno  
Voronezh (UUOO) Zatím nenačteno  
Reklama

Reklama


Newslettter

Počasí na Váš email

Každý den Vám pošleme předpověď
Emaily chodí ráno a bez reklamy



Odhlásit newsletter

Reklama